Strona główna
METAR-TAF:

METAR-TAF

Lotnisko :

Port lotniczy Liège

Liège, Belgia

Szerokość geograficzna: 50-39N, Długość geograficzna: 005-27E, wysokość: 186 m

Aktualna obserwacja pogody

Raport powstał 21 minut temu, godzina 12:50 UTC
Wiatr 2 kt z kierunków zmiennych
Temperatura 22°C
Wilgotność 53%
Ciśnienie 1015 hPa
Widzialność 10 km lub więcej
Mało chmury na wysokości 3800 ft

METAR: EBLG 171250Z VRB02KT 9999 FEW038 22/12 Q1015 NOSIG

czas: 15:11 (13:11 UTC)

Prognoza

Raport powstał 2 godziny i 7 minut temu, godzina 11:04 UTC
Prognoza ważna od 17 godzina 12 UTC do 18 godzina 18 UTC
Wiatr 5 kt z kierunków zmiennych
Widzialność 10 km lub więcej
Mało chmury na wysokości 3000 ft

TAF: EBLG 171104Z 1712/1818 VRB05KT 9999 FEW030

Obserwacja i prognoza pogody dla ponad 4000 lotnisk (raport METAR i TAF).

Dostępne stacje oznaczono żółtymi i czerwonymi punktami na mapie.

Najedź kursorem aby zobaczyć nazwę stacji.

Kliknij aby zobaczyć obserwacje i prognozy pogody.

Aby zmienić mapę: kliknij na zielony przycisk z czarnym krzyżykiem, aby powiększyć; na zielony przycisk z myślnikiem, aby pomniejszyć; na zielone strzałki, aby przejść do map sąsiednich.


METAR-TAF: